Time;durP1;ratioP1;P1;durP2;ratioP2;P2;SDS_P1;SDS_P2;PMS_P1;PMS_P2;Temp;Humidity;BMP_temperature;BMP_pressure;BME280_temperature;BME280_humidity;BME280_pressure;Samples;Min_cycle;Max_cycle;Signal;HPM_P1;HPM_P2
2021/09/03 00:02:05;;;;;;;;;;;;;;;17.59;50.29;100236.22;5073232;28;857;-60
2021/09/03 00:04:31;;;;;;;;;;;;;;;17.54;50.56;100232.75;5073182;28;865;-61
2021/09/03 00:06:58;;;;;;;;;;;;;;;17.49;50.79;100230.47;5071944;28;1186;-60
2021/09/03 00:09:25;;;;;;;;;;;;;;;17.42;50.81;100227.88;5073109;28;830;-60
2021/09/03 00:11:52;;;;;;;;;;;;;;;17.36;51.10;100238.00;5073029;28;794;-61
2021/09/03 00:14:19;;;;;;;;;;;;;;;17.29;51.34;100240.97;5072919;28;1100;-61
2021/09/03 00:16:46;;;;;;;;;;;;;;;17.24;51.43;100225.53;5072818;28;1951;-60
2021/09/03 00:19:12;;;;;;;;;;;;;;;17.22;51.59;100225.19;5072904;28;864;-60
2021/09/03 00:21:38;;;;;;;;;;;;;;;17.20;51.60;100224.84;5072932;28;822;-60
2021/09/03 00:24:05;;;;;;;;;;;;;;;17.22;51.43;100229.97;5072842;28;841;-60
2021/09/03 00:26:31;;;;;;;;;;;;;;;17.21;51.48;100226.41;5072626;28;867;-60
2021/09/03 00:28:58;;;;;;;;;;;;;;;17.19;51.65;100231.63;5072842;28;806;-60
2021/09/03 00:31:24;;;;;;;;;;;;;;;17.10;52.35;100237.06;5072703;28;876;-60
2021/09/03 00:33:51;;;;;;;;;;;;;;;17.07;51.99;100226.75;5072621;28;826;-60
2021/09/03 00:36:17;;;;;;;;;;;;;;;17.02;51.72;100230.09;5071176;28;1914;-60
2021/09/03 00:38:44;;;;;;;;;;;;;;;17.03;51.11;100223.28;5072558;28;849;-60
2021/09/03 00:41:11;;;;;;;;;;;;;;;17.05;50.85;100224.41;5072670;28;822;-60
2021/09/03 00:43:37;;;;;;;;;;;;;;;17.02;50.65;100213.31;5072545;28;872;-60
2021/09/03 00:46:04;;;;;;;;;;;;;;;17.00;50.12;100210.19;5072659;28;806;-60
2021/09/03 00:48:30;;;;;;;;;;;;;;;16.99;49.76;100198.25;5072594;28;822;-60
2021/09/03 00:50:56;;;;;;;;;;;;;;;16.99;49.26;100195.44;5072389;28;837;-60
2021/09/03 00:53:23;;;;;;;;;;;;;;;17.02;49.16;100200.16;5072224;28;869;-60
2021/09/03 00:55:51;;;;;;;;;;;;;;;17.01;49.17;100195.03;5072027;28;822;-60
2021/09/03 00:58:21;;;;;;;;;;;;;;;17.00;49.52;100199.03;5071678;28;862;-60
2021/09/03 01:00:50;;;;;;;;;;;;;;;16.97;49.85;100199.91;5072123;28;814;-61
2021/09/03 01:03:17;;;;;;;;;;;;;;;16.92;49.96;100195.63;5072096;28;901;-60
2021/09/03 01:05:44;;;;;;;;;;;;;;;16.87;50.44;100196.91;5072020;28;790;-60
2021/09/03 01:08:11;;;;;;;;;;;;;;;16.84;50.74;100192.22;5070709;28;1444;-60
2021/09/03 01:10:37;;;;;;;;;;;;;;;16.80;50.94;100201.88;5071879;28;873;-60
2021/09/03 01:13:04;;;;;;;;;;;;;;;16.78;50.82;100201.53;5071935;28;823;-60
2021/09/03 01:15:30;;;;;;;;;;;;;;;16.76;51.20;100206.75;5072290;28;1030;-60
2021/09/03 01:17:55;;;;;;;;;;;;;;;16.72;50.12;100202.03;5071630;28;1886;-60
2021/09/03 01:20:22;;;;;;;;;;;;;;;16.75;49.98;100203.19;5072107;28;854;-60
2021/09/03 01:22:48;;;;;;;;;;;;;;;16.74;49.75;100213.53;5072084;28;799;-60
2021/09/03 01:25:17;;;;;;;;;;;;;;;16.72;49.71;100226.38;5071908;28;823;-60
2021/09/03 01:27:43;;;;;;;;;;;;;;;16.69;49.80;100233.63;5071932;28;834;-60
2021/09/03 01:30:11;;;;;;;;;;;;;;;16.64;49.63;100236.94;5071927;28;822;-60
2021/09/03 01:32:36;;;;;;;;;;;;;;;16.62;49.48;100244.94;5071930;28;852;-60
2021/09/03 01:35:02;;;;;;;;;;;;;;;16.60;49.29;100241.81;5071743;28;881;-60
2021/09/03 01:37:28;;;;;;;;;;;;;;;16.59;49.17;100236.66;5071710;28;1902;-60
2021/09/03 01:39:55;;;;;;;;;;;;;;;16.56;49.14;100245.88;5071513;28;932;-60
2021/09/03 01:42:21;;;;;;;;;;;;;;;16.53;48.73;100247.53;5071604;28;791;-60
2021/09/03 01:44:48;;;;;;;;;;;;;;;16.52;48.78;100252.34;5071544;28;770;-60
2021/09/03 01:47:14;;;;;;;;;;;;;;;16.53;48.88;100256.69;5071512;28;819;-60
2021/09/03 01:49:41;;;;;;;;;;;;;;;16.53;48.12;100261.47;5071448;28;806;-61
2021/09/03 01:52:07;;;;;;;;;;;;;;;16.57;47.80;100258.63;5071498;28;794;-60
2021/09/03 01:54:34;;;;;;;;;;;;;;;16.57;47.92;100259.41;5071359;28;900;-60
2021/09/03 01:57:00;;;;;;;;;;;;;;;16.58;47.61;100262.97;5071333;28;1882;-60
2021/09/03 01:59:26;;;;;;;;;;;;;;;16.56;47.60;100262.63;5071379;28;981;-60
2021/09/03 02:01:52;;;;;;;;;;;;;;;16.54;47.54;100258.25;5071311;28;853;-60
2021/09/03 02:04:18;;;;;;;;;;;;;;;16.52;47.47;100266.28;5071407;28;806;-60
2021/09/03 02:06:44;;;;;;;;;;;;;;;16.53;47.27;100267.06;5071291;28;853;-60
2021/09/03 02:09:10;;;;;;;;;;;;;;;16.56;47.54;100265.41;5072825;28;806;-60
2021/09/03 02:11:36;;;;;;;;;;;;;;;16.49;47.84;100274.72;5075363;28;790;-60
2021/09/03 02:14:03;;;;;;;;;;;;;;;16.38;48.23;100263.78;5073980;28;1187;-60
2021/09/03 02:16:29;;;;;;;;;;;;;;;16.28;48.59;100260.03;5075284;28;1906;-61
2021/09/03 02:18:55;;;;;;;;;;;;;;;16.19;48.87;100261.81;5075456;28;889;-61
2021/09/03 02:21:21;;;;;;;;;;;;;;;16.21;48.05;100259.38;5075436;28;863;-60
2021/09/03 02:23:47;;;;;;;;;;;;;;;16.24;48.26;100255.75;5075069;28;806;-60
2021/09/03 02:26:13;;;;;;;;;;;;;;;16.20;48.35;100257.81;5075244;28;893;-60
2021/09/03 02:28:39;;;;;;;;;;;;;;;16.17;48.32;100261.44;5074983;28;860;-60
2021/09/03 02:31:06;;;;;;;;;;;;;;;16.17;48.13;100265.03;5074955;28;806;-60
2021/09/03 02:33:31;;;;;;;;;;;;;;;16.11;48.14;100266.75;5074888;28;794;-60
2021/09/03 02:35:57;;;;;;;;;;;;;;;16.13;47.93;100269.91;5075101;28;1885;-60
2021/09/03 02:38:24;;;;;;;;;;;;;;;16.07;48.50;100266.06;5075284;28;885;-60
2021/09/03 02:40:51;;;;;;;;;;;;;;;16.01;48.81;100270.53;5075672;28;746;-60
2021/09/03 02:43:17;;;;;;;;;;;;;;;15.97;48.56;100269.84;5074650;28;870;-60
2021/09/03 02:45:43;;;;;;;;;;;;;;;15.99;48.58;100275.75;5074685;28;831;-60
2021/09/03 02:48:08;;;;;;;;;;;;;;;16.01;48.32;100274.13;5074639;28;802;-60
2021/09/03 02:50:34;;;;;;;;;;;;;;;15.99;48.35;100268.19;5074561;28;880;-60
2021/09/03 02:53:00;;;;;;;;;;;;;;;15.93;48.51;100267.09;5074737;28;806;-60
2021/09/03 02:55:26;;;;;;;;;;;;;;;15.83;49.11;100270.88;5074351;28;822;-60
2021/09/03 02:57:52;;;;;;;;;;;;;;;15.75;49.20;100267.47;5074662;28;1918;-60
2021/09/03 03:00:17;;;;;;;;;;;;;;;15.73;49.06;100269.88;5074405;28;806;-60
2021/09/03 03:02:44;;;;;;;;;;;;;;;15.73;49.14;100266.31;5074314;28;888;-60
2021/09/03 03:05:11;;;;;;;;;;;;;;;15.73;48.81;100257.94;5074360;28;814;-60
2021/09/03 03:07:38;;;;;;;;;;;;;;;15.74;48.82;100251.16;5074505;28;835;-60
2021/09/03 03:10:04;;;;;;;;;;;;;;;15.70;48.89;100252.00;5074186;28;987;-60
2021/09/03 03:12:31;;;;;;;;;;;;;;;15.69;48.91;100249.63;5074220;28;795;-60
2021/09/03 03:14:57;;;;;;;;;;;;;;;15.65;49.02;100241.31;5074258;28;1022;-60
2021/09/03 03:17:24;;;;;;;;;;;;;;;15.61;48.75;100245.38;5072557;28;1971;-60
2021/09/03 03:19:50;;;;;;;;;;;;;;;15.60;48.93;100241.03;5073926;28;807;-60
2021/09/03 03:22:16;;;;;;;;;;;;;;;15.60;48.84;100238.25;5073342;28;850;-60
2021/09/03 03:24:42;;;;;;;;;;;;;;;15.60;48.48;100241.81;5073941;28;814;-60
2021/09/03 03:27:08;;;;;;;;;;;;;;;15.62;48.23;100242.19;5073967;28;882;-60
2021/09/03 03:29:34;;;;;;;;;;;;;;;15.68;47.81;100250.81;5073900;28;884;-59
2021/09/03 03:31:59;;;;;;;;;;;;;;;15.76;47.75;100259.88;5073811;28;857;-60
2021/09/03 03:34:26;;;;;;;;;;;;;;;15.80;47.64;100258.59;5073947;28;799;-60
2021/09/03 03:36:52;;;;;;;;;;;;;;;15.78;47.86;100266.59;5073874;28;1890;-60
2021/09/03 03:39:18;;;;;;;;;;;;;;;15.73;48.15;100261.53;5074007;28;795;-60
2021/09/03 03:41:44;;;;;;;;;;;;;;;15.63;48.23;100268.81;5072758;28;1475;-60
2021/09/03 03:44:10;;;;;;;;;;;;;;;15.56;48.47;100271.75;5073633;28;862;-61
2021/09/03 03:46:37;;;;;;;;;;;;;;;15.52;48.54;100284.94;5073552;28;830;-60
2021/09/03 03:49:03;;;;;;;;;;;;;;;15.51;48.47;100292.53;5073568;28;818;-60
2021/09/03 03:51:29;;;;;;;;;;;;;;;15.49;48.61;100280.22;5073462;28;853;-60
2021/09/03 03:53:55;;;;;;;;;;;;;;;15.50;48.72;100288.16;5073383;28;825;-60
2021/09/03 03:56:22;;;;;;;;;;;;;;;15.59;48.33;100281.25;5073455;28;1878;-60
2021/09/03 03:58:48;;;;;;;;;;;;;;;15.63;48.51;100282.75;5073269;28;902;-60
2021/09/03 04:01:14;;;;;;;;;;;;;;;15.64;48.42;100291.88;5073272;28;984;-60
2021/09/03 04:03:40;;;;;;;;;;;;;;;15.73;47.91;100285.81;5073606;28;901;-61
2021/09/03 04:06:06;;;;;;;;;;;;;;;15.81;47.47;100290.84;5073180;28;850;-60
2021/09/03 04:08:32;;;;;;;;;;;;;;;15.88;47.42;100301.06;5071840;28;1321;-60
2021/09/03 04:10:58;;;;;;;;;;;;;;;15.92;47.15;100293.41;5073332;28;810;-60
2021/09/03 04:13:24;;;;;;;;;;;;;;;15.97;47.35;100289.34;5072944;28;883;-60
2021/09/03 04:15:50;;;;;;;;;;;;;;;16.01;47.21;100287.28;5073340;28;1024;-60
2021/09/03 04:18:17;;;;;;;;;;;;;;;16.03;47.40;100282.84;5072714;28;1968;-60
2021/09/03 04:20:43;;;;;;;;;;;;;;;16.03;47.15;100280.06;5071588;28;1337;-60
2021/09/03 04:23:10;;;;;;;;;;;;;;;16.04;46.97;100286.41;5072804;28;798;-60
2021/09/03 04:25:36;;;;;;;;;;;;;;;16.09;47.18;100285.94;5072742;28;794;-60
2021/09/03 04:28:04;;;;;;;;;;;;;;;16.10;46.90;100291.06;5072799;28;877;-60
2021/09/03 04:30:29;;;;;;;;;;;;;;;16.12;46.61;100287.84;5072682;28;814;-60
2021/09/03 04:32:55;;;;;;;;;;;;;;;16.16;46.51;100282.19;5072662;28;806;-60
2021/09/03 04:35:22;;;;;;;;;;;;;;;16.22;46.47;100278.47;5072543;28;836;-60
2021/09/03 04:37:49;;;;;;;;;;;;;;;16.29;46.05;100278.31;5072563;28;1890;-60
2021/09/03 04:40:16;;;;;;;;;;;;;;;16.32;46.21;100277.47;5072525;28;802;-59
2021/09/03 04:42:42;;;;;;;;;;;;;;;16.40;46.14;100282.91;5072430;28;810;-60
2021/09/03 04:45:10;;;;;;;;;;;;;;;16.43;45.77;100282.84;5072388;28;802;-60
2021/09/03 04:47:36;;;;;;;;;;;;;;;16.43;45.85;100280.03;5072420;28;869;-60
2021/09/03 04:50:02;;;;;;;;;;;;;;;16.49;44.91;100278.31;5072301;28;852;-59
2021/09/03 04:52:28;;;;;;;;;;;;;;;16.57;44.78;100272.56;5072363;28;794;-60
2021/09/03 04:54:55;;;;;;;;;;;;;;;16.63;45.31;100284.81;5072516;28;865;-60
2021/09/03 04:57:25;;;;;;;;;;;;;;;16.64;45.23;100291.94;5072405;28;1886;-59
2021/09/03 04:59:52;;;;;;;;;;;;;;;16.70;45.31;100288.19;5072275;28;921;-60
2021/09/03 05:02:18;;;;;;;;;;;;;;;16.82;44.99;100288.78;5072065;28;815;-59
2021/09/03 05:04:46;;;;;;;;;;;;;;;17.05;44.57;100296.25;5072283;28;869;-60
2021/09/03 05:07:12;;;;;;;;;;;;;;;17.58;43.07;100296.94;5070695;28;2302;-60
2021/09/03 05:17:23;;;;;;;;;;;;;;;19.22;37.79;100306.63;5070704;22;1886;-59
2021/09/03 05:19:50;;;;;;;;;;;;;;;19.40;37.84;100308.84;5051912;28;825;-59
2021/09/03 05:22:16;;;;;;;;;;;;;;;19.68;37.74;100312.72;5051938;28;933;-59
2021/09/03 05:24:43;;;;;;;;;;;;;;;20.05;37.17;100299.03;5052014;28;802;-60
2021/09/03 05:27:09;;;;;;;;;;;;;;;20.09;35.69;100303.25;5052060;28;838;-59
2021/09/03 05:29:36;;;;;;;;;;;;;;;19.98;36.21;100303.66;5051773;28;837;-59
2021/09/03 05:32:03;;;;;;;;;;;;;;;20.05;36.23;100294.19;5051669;28;857;-59
2021/09/03 05:34:29;;;;;;;;;;;;;;;20.10;35.59;100302.03;5051628;28;821;-59
2021/09/03 05:36:56;;;;;;;;;;;;;;;19.86;35.72;100301.66;5051569;28;2261;-59
2021/09/03 05:39:22;;;;;;;;;;;;;;;19.47;37.59;100297.41;5051588;28;829;-59
2021/09/03 05:41:49;;;;;;;;;;;;;;;19.37;38.35;100296.50;5050352;28;1283;-59
2021/09/03 05:44:15;;;;;;;;;;;;;;;19.43;38.75;100316.34;5051083;28;814;-59
2021/09/03 05:46:42;;;;;;;;;;;;;;;19.71;38.66;100317.44;5051473;28;909;-60
2021/09/03 05:49:08;;;;;;;;;;;;;;;20.04;37.03;100311.50;5051474;28;814;-60
2021/09/03 05:51:34;;;;;;;;;;;;;;;20.31;36.54;100311.69;5051459;28;956;-60
2021/09/03 05:54:07;;;;;;;;;;;;;;;20.78;36.55;100310.75;5051446;28;905;-59
2021/09/03 05:56:33;;;;;;;;;;;;;;;21.47;34.24;100305.22;5051369;28;1945;-60
2021/09/03 05:58:59;;;;;;;;;;;;;;;21.91;33.53;100305.75;5051402;28;813;-60
2021/09/03 06:01:25;;;;;;;;;;;;;;;22.03;33.39;100307.59;5051492;28;775;-60
2021/09/03 06:03:52;;;;;;;;;;;;;;;22.00;32.96;100305.72;5051351;28;790;-60
2021/09/03 06:06:18;;;;;;;;;;;;;;;21.92;33.66;100315.72;5051580;28;877;-60
2021/09/03 06:08:45;;;;;;;;;;;;;;;21.87;33.48;100326.81;5051606;28;814;-59
2021/09/03 06:14:13;;;;;;;;;;;;;;;21.74;33.81;100321.34;5051281;28;633;-60
2021/09/03 06:16:40;;;;;;;;;;;;;;;21.61;33.60;100327.09;5049587;28;1902;-60
2021/09/03 06:19:07;;;;;;;;;;;;;;;22.53;32.44;100329.13;5051283;28;835;-60
2021/09/03 06:21:33;;;;;;;;;;;;;;;23.24;31.45;100336.28;5051143;28;834;-60
2021/09/03 06:23:59;;;;;;;;;;;;;;;23.99;29.73;100326.88;5051475;28;849;-60
2021/09/03 06:26:26;;;;;;;;;;;;;;;23.99;29.37;100332.53;5051239;28;873;-60
2021/09/03 06:28:53;;;;;;;;;;;;;;;24.25;29.63;100343.28;5051289;28;862;-60
2021/09/03 06:31:19;;;;;;;;;;;;;;;24.44;28.30;100346.72;5051274;28;807;-60
2021/09/03 06:33:45;;;;;;;;;;;;;;;24.54;28.32;100348.22;5050013;28;1318;-60
2021/09/03 06:36:12;;;;;;;;;;;;;;;24.48;28.34;100341.66;5051635;28;1943;-60
2021/09/03 06:38:39;;;;;;;;;;;;;;;24.22;28.49;100333.75;5051744;28;795;-60
2021/09/03 06:41:05;;;;;;;;;;;;;;;24.21;28.25;100329.34;5051274;28;857;-60
2021/09/03 06:43:32;;;;;;;;;;;;;;;24.32;28.61;100340.06;5050948;28;873;-60
2021/09/03 06:45:58;;;;;;;;;;;;;;;24.25;28.25;100338.41;5050822;28;861;-60
2021/09/03 06:48:25;;;;;;;;;;;;;;;24.15;27.86;100339.75;5050889;28;881;-60
2021/09/03 06:50:52;;;;;;;;;;;;;;;24.13;27.83;100341.50;5050955;28;850;-60
2021/09/03 06:53:18;;;;;;;;;;;;;;;24.45;28.21;100353.91;5050867;28;849;-60
2021/09/03 06:55:45;;;;;;;;;;;;;;;24.98;27.35;100347.41;5051536;28;858;-60
2021/09/03 06:58:12;;;;;;;;;;;;;;;25.59;26.73;100352.44;5054602;28;1971;-60
2021/09/03 07:00:39;;;;;;;;;;;;;;;25.81;26.28;100356.84;5054434;28;877;-60
2021/09/03 07:03:05;;;;;;;;;;;;;;;26.31;25.48;100353.84;5054426;28;865;-60
2021/09/03 07:05:31;;;;;;;;;;;;;;;26.54;25.35;100356.88;5054394;28;858;-60
2021/09/03 07:07:58;;;;;;;;;;;;;;;26.98;24.50;100369.94;5054307;28;822;-60
2021/09/03 07:10:24;;;;;;;;;;;;;;;26.90;24.71;100372.44;5054280;28;848;-60
2021/09/03 07:12:51;;;;;;;;;;;;;;;26.68;24.33;100373.81;5054470;28;884;-60
2021/09/03 07:15:18;;;;;;;;;;;;;;;26.60;24.40;100367.03;5054210;28;851;-60
2021/09/03 07:17:44;;;;;;;;;;;;;;;26.76;24.57;100364.88;5053889;28;1906;-60
2021/09/03 07:20:12;;;;;;;;;;;;;;;26.76;23.96;100371.31;5054153;28;797;-60
2021/09/03 07:22:39;;;;;;;;;;;;;;;26.51;24.29;100375.69;5054141;28;925;-60
2021/09/03 07:25:05;;;;;;;;;;;;;;;26.54;24.92;100390.91;5054033;28;845;-60
2021/09/03 07:27:32;;;;;;;;;;;;;;;26.95;24.50;100385.91;5053961;28;822;-60
2021/09/03 07:29:58;;;;;;;;;;;;;;;27.63;24.46;100383.56;5053889;28;869;-60
2021/09/03 07:32:25;;;;;;;;;;;;;;;27.48;23.29;100393.03;5053912;28;854;-60
2021/09/03 07:34:51;;;;;;;;;;;;;;;27.29;24.07;100400.41;5053794;28;865;-60
2021/09/03 07:37:18;;;;;;;;;;;;;;;26.96;24.10;100387.47;5053889;28;1961;-60
2021/09/03 07:39:45;;;;;;;;;;;;;;;26.57;24.18;100387.88;5053995;28;829;-60
2021/09/03 07:42:11;;;;;;;;;;;;;;;26.74;24.81;100388.06;5053771;28;967;-60
2021/09/03 07:44:37;;;;;;;;;;;;;;;27.10;24.11;100385.78;5053555;28;829;-60
2021/09/03 07:47:04;;;;;;;;;;;;;;;27.78;23.87;100377.69;5053588;28;862;-60
2021/09/03 07:49:31;;;;;;;;;;;;;;;27.67;23.62;100381.25;5053714;28;877;-60
2021/09/03 07:51:57;;;;;;;;;;;;;;;27.42;23.67;100391.44;5053452;28;854;-60
2021/09/03 07:54:24;;;;;;;;;;;;;;;27.17;23.51;100393.81;5053480;28;861;-60
2021/09/03 07:56:52;;;;;;;;;;;;;;;26.61;24.53;100385.63;5053341;28;1886;-60
2021/09/03 07:59:19;;;;;;;;;;;;;;;26.42;24.96;100390.78;5053352;28;862;-60
2021/09/03 08:01:45;;;;;;;;;;;;;;;26.41;24.96;100396.97;5053310;28;862;-60
2021/09/03 08:04:11;;;;;;;;;;;;;;;25.96;25.40;100383.06;5053503;28;882;-60
2021/09/03 08:06:38;;;;;;;;;;;;;;;24.99;26.47;100384.97;5052813;28;946;-60
2021/09/03 08:09:05;;;;;;;;;;;;;;;25.37;25.78;100375.56;5053264;28;826;-60
2021/09/03 08:11:31;;;;;;;;;;;;;;;26.22;25.21;100377.47;5053115;28;822;-60
2021/09/03 08:13:58;;;;;;;;;;;;;;;26.71;25.06;100385.44;5053013;28;1136;-60
2021/09/03 08:16:25;;;;;;;;;;;;;;;27.14;24.60;100386.34;5052601;28;2005;-60
2021/09/03 08:18:51;;;;;;;;;;;;;;;27.34;24.05;100385.47;5053028;28;810;-60
2021/09/03 08:21:18;;;;;;;;;;;;;;;27.69;23.51;100387.22;5052989;28;806;-59
2021/09/03 08:23:44;;;;;;;;;;;;;;;27.94;23.88;100385.56;5051582;28;1020;-60
2021/09/03 08:26:11;;;;;;;;;;;;;;;28.59;23.27;100390.44;5052902;28;798;-60
2021/09/03 08:28:36;;;;;;;;;;;;;;;28.98;22.44;100381.13;5052810;28;810;-60
2021/09/03 08:31:03;;;;;;;;;;;;;;;28.57;22.33;100375.16;5052709;28;865;-60
2021/09/03 08:33:29;;;;;;;;;;;;;;;27.90;23.44;100365.13;5053059;28;802;-60
2021/09/03 08:35:56;;;;;;;;;;;;;;;27.73;24.09;100367.88;5052785;28;874;-60
2021/09/03 08:38:23;;;;;;;;;;;;;;;27.78;23.54;100358.63;5052708;28;1886;-60
2021/09/03 08:40:50;;;;;;;;;;;;;;;27.71;24.11;100356.25;5052871;28;818;-60
2021/09/03 08:43:19;;;;;;;;;;;;;;;27.64;24.42;100356.72;5052891;28;806;-60
2021/09/03 08:45:48;;;;;;;;;;;;;;;27.84;23.88;100350.88;5052405;28;858;-60
2021/09/03 08:48:17;;;;;;;;;;;;;;;27.74;23.93;100348.75;5052464;28;806;-59
2021/09/03 08:50:44;;;;;;;;;;;;;;;27.62;23.81;100347.94;5052334;28;866;-60
2021/09/03 08:53:14;;;;;;;;;;;;;;;27.53;23.75;100351.00;5052387;28;814;-60
2021/09/03 08:55:42;;;;;;;;;;;;;;;27.52;24.60;100338.84;5052451;28;920;-60
2021/09/03 08:58:09;;;;;;;;;;;;;;;27.78;24.12;100335.91;5052158;28;1957;-60
2021/09/03 09:00:35;;;;;;;;;;;;;;;27.80;24.17;100350.38;5052226;28;846;-60
2021/09/03 09:03:06;;;;;;;;;;;;;;;27.66;23.56;100332.22;5052212;28;885;-60
2021/09/03 09:05:52;;;;;;;;;;;;;;;27.25;23.83;100326.84;5051596;28;999;-59
2021/09/03 09:08:22;;;;;;;;;;;;;;;27.16;24.30;100327.03;5052192;28;833;-60
2021/09/03 09:11:05;;;;;;;;;;;;;;;27.38;24.83;100329.25;5050770;28;1219;-59
2021/09/03 09:13:35;;;;;;;;;;;;;;;27.59;24.56;100329.06;5051842;28;872;-59
2021/09/03 09:16:11;;;;;;;;;;;;;;;27.11;24.28;100324.91;5051813;28;1235;-59
2021/09/03 09:18:39;;;;;;;;;;;;;;;26.63;25.51;100326.34;5050292;28;1350;-59
2021/09/03 09:21:09;;;;;;;;;;;;;;;26.57;25.96;100330.44;5051924;28;821;-59
2021/09/03 09:23:40;;;;;;;;;;;;;;;26.75;25.57;100321.53;5051192;28;803;-59
2021/09/03 09:26:07;;;;;;;;;;;;;;;26.81;25.29;100325.22;5051633;28;825;-59
2021/09/03 09:28:34;;;;;;;;;;;;;;;26.31;26.05;100316.22;5051813;28;798;-59
2021/09/03 09:31:00;;;;;;;;;;;;;;;26.47;25.91;100309.94;5051955;28;834;-59
2021/09/03 09:33:27;;;;;;;;;;;;;;;26.79;25.99;100295.81;5051741;28;791;-59
2021/09/03 09:35:54;;;;;;;;;;;;;;;26.99;26.07;100304.22;5051733;28;810;-59
2021/09/03 09:38:23;;;;;;;;;;;;;;;26.95;25.90;100295.16;5051435;28;1910;-59
2021/09/03 09:40:52;;;;;;;;;;;;;;;26.65;26.12;100301.13;5051486;28;860;-59
2021/09/03 09:43:35;;;;;;;;;;;;;;;26.07;26.57;100286.09;5050260;28;1326;-59
2021/09/03 09:46:07;;;;;;;;;;;;;;;25.45;27.16;100283.31;5051803;28;791;-59
2021/09/03 09:48:54;;;;;;;;;;;;;;;25.31;27.53;100291.88;5051479;28;826;-59
2021/09/03 09:51:27;;;;;;;;;;;;;;;25.13;27.69;100285.16;5051509;28;846;-59
2021/09/03 09:53:54;;;;;;;;;;;;;;;24.60;28.31;100283.31;5051407;28;834;-59
2021/09/03 09:56:22;;;;;;;;;;;;;;;24.16;29.50;100284.06;5050036;28;1894;-59
2021/09/03 09:58:50;;;;;;;;;;;;;;;24.24;29.20;100285.25;5051593;28;873;-59
2021/09/03 10:01:18;;;;;;;;;;;;;;;24.70;28.40;100278.34;5051343;28;826;-59
2021/09/03 10:03:47;;;;;;;;;;;;;;;25.13;28.09;100273.06;5052041;28;830;-59
2021/09/03 10:06:15;;;;;;;;;;;;;;;25.57;27.90;100272.13;5050261;28;1266;-59
2021/09/03 10:08:42;;;;;;;;;;;;;;;25.95;27.20;100265.41;5051405;28;810;-59
2021/09/03 10:11:09;;;;;;;;;;;;;;;26.38;27.04;100259.13;5051193;28;892;-59
2021/09/03 10:13:35;;;;;;;;;;;;;;;26.82;26.21;100269.25;5051344;28;815;-59
2021/09/03 10:16:01;;;;;;;;;;;;;;;27.03;26.34;100256.50;5051511;28;1380;-59
2021/09/03 10:18:28;;;;;;;;;;;;;;;27.25;25.26;100260.81;5051679;28;1962;-59
2021/09/03 10:20:55;;;;;;;;;;;;;;;27.55;25.08;100260.44;5051417;28;865;-59
2021/09/03 10:23:39;;;;;;;;;;;;;;;27.54;25.23;100259.63;5051342;28;798;-59
2021/09/03 10:26:05;;;;;;;;;;;;;;;27.32;25.26;100253.88;5051124;28;855;-59
2021/09/03 10:28:32;;;;;;;;;;;;;;;26.75;26.49;100255.56;5051096;28;877;-59
2021/09/03 10:31:06;;;;;;;;;;;;;;;27.15;26.03;100250.91;5053871;28;827;-59
2021/09/03 10:33:36;;;;;;;;;;;;;;;27.66;25.14;100255.56;5054990;28;858;-59
2021/09/03 10:36:03;;;;;;;;;;;;;;;26.84;25.92;100253.31;5055007;28;826;-59
2021/09/03 10:38:31;;;;;;;;;;;;;;;26.32;26.41;100258.28;5054825;28;1890;-59
2021/09/03 10:40:59;;;;;;;;;;;;;;;26.17;26.74;100250.69;5054881;28;778;-59
2021/09/03 10:43:45;;;;;;;;;;;;;;;25.82;27.62;100248.75;5054818;28;803;-59
2021/09/03 10:46:13;;;;;;;;;;;;;;;26.08;27.10;100245.97;5054738;28;861;-58
2021/09/03 10:48:47;;;;;;;;;;;;;;;27.20;25.18;100250.16;5054992;28;814;-59
2021/09/03 10:51:32;;;;;;;;;;;;;;;27.90;24.96;100232.41;5054643;28;834;-59
2021/09/03 10:53:59;;;;;;;;;;;;;;;27.46;24.77;100236.66;5053351;28;1445;-59
2021/09/03 10:56:33;;;;;;;;;;;;;;;27.03;25.68;100233.06;5054634;28;1914;-59
2021/09/03 10:59:06;;;;;;;;;;;;;;;27.22;25.74;100225.69;5054668;28;877;-59
2021/09/03 11:01:34;;;;;;;;;;;;;;;27.05;26.05;100228.41;5054546;28;822;-59
2021/09/03 11:04:12;;;;;;;;;;;;;;;27.11;26.12;100219.19;5054455;28;830;-59
2021/09/03 11:06:48;;;;;;;;;;;;;;;26.99;26.29;100219.13;5054433;28;908;-59
2021/09/03 11:09:17;;;;;;;;;;;;;;;27.64;26.21;100217.63;5054349;28;865;-59
2021/09/03 11:11:45;;;;;;;;;;;;;;;28.15;25.88;100209.22;5054318;28;786;-60
2021/09/03 11:14:13;;;;;;;;;;;;;;;28.49;25.91;100212.84;5054193;28;869;-59
2021/09/03 11:16:40;;;;;;;;;;;;;;;28.65;25.13;100209.19;5054181;28;1902;-59
2021/09/03 11:19:17;;;;;;;;;;;;;;;28.43;25.51;100212.81;5054456;28;873;-59
2021/09/03 11:21:44;;;;;;;;;;;;;;;28.48;25.68;100203.53;5054102;28;905;-60
2021/09/03 11:36:21;;;;;;;;;;;;;;;27.93;25.89;100201.44;5054001;28;1898;-59
2021/09/03 11:38:55;;;;;;;;;;;;;;;28.18;25.91;100206.09;5053683;28;861;-59
2021/09/03 11:41:22;;;;;;;;;;;;;;;27.99;26.42;100197.31;5052976;28;810;-59
2021/09/03 11:43:51;;;;;;;;;;;;;;;27.68;27.15;100206.78;5053698;28;818;-59
2021/09/03 11:46:20;;;;;;;;;;;;;;;27.41;27.03;100194.06;5053927;28;830;-59
2021/09/03 11:48:47;;;;;;;;;;;;;;;27.18;27.32;100198.81;5053832;28;798;-59
2021/09/03 11:51:21;;;;;;;;;;;;;;;27.66;26.72;100195.94;5053748;28;798;-59
2021/09/03 11:53:48;;;;;;;;;;;;;;;28.24;26.26;100186.97;5053487;28;826;-59
2021/09/03 11:56:16;;;;;;;;;;;;;;;28.44;25.50;100188.00;5053477;28;826;-59
2021/09/03 11:58:43;;;;;;;;;;;;;;;28.55;25.80;100201.47;5053522;28;1937;-59
2021/09/03 12:01:11;;;;;;;;;;;;;;;28.84;25.67;100191.59;5053504;28;810;-59
2021/09/03 12:03:40;;;;;;;;;;;;;;;28.97;25.16;100191.03;5053236;28;1015;-59
2021/09/03 12:06:08;;;;;;;;;;;;;;;28.41;24.87;100194.75;5053300;28;834;-59
2021/09/03 12:08:35;;;;;;;;;;;;;;;28.35;25.53;100194.72;5053036;28;865;-59
2021/09/03 12:11:03;;;;;;;;;;;;;;;27.93;26.23;100193.69;5053241;28;842;-59
2021/09/03 12:13:30;;;;;;;;;;;;;;;27.81;26.52;100187.19;5053071;28;889;-59
2021/09/03 12:16:03;;;;;;;;;;;;;;;28.41;26.03;100183.38;5051492;28;1199;-59
2021/09/03 12:18:33;;;;;;;;;;;;;;;28.83;25.89;100173.75;5053271;28;1914;-59
2021/09/03 12:21:04;;;;;;;;;;;;;;;29.34;25.62;100179.28;5052984;28;802;-59
2021/09/03 12:23:54;;;;;;;;;;;;;;;29.04;24.41;100177.06;5053128;28;826;-59
2021/09/03 12:26:22;;;;;;;;;;;;;;;28.38;25.68;100168.13;5042406;28;1354;-59
2021/09/03 12:28:50;;;;;;;;;;;;;;;28.20;26.12;100177.19;5052786;28;798;-59
2021/09/03 12:31:21;;;;;;;;;;;;;;;28.48;25.74;100169.41;5052797;28;790;-59
2021/09/03 12:33:55;;;;;;;;;;;;;;;28.83;25.25;100164.44;5052769;28;893;-59
2021/09/03 12:36:26;;;;;;;;;;;;;;;28.90;25.29;100172.44;5052884;28;1882;-59
2021/09/03 12:38:54;;;;;;;;;;;;;;;28.84;25.73;100166.00;5052603;28;779;-59
2021/09/03 12:41:28;;;;;;;;;;;;;;;28.79;25.24;100153.34;5052607;28;806;-59
2021/09/03 12:44:15;;;;;;;;;;;;;;;28.07;26.21;100161.41;5052551;28;838;-59
2021/09/03 12:46:46;;;;;;;;;;;;;;;27.65;27.56;100154.66;5052550;28;818;-59
2021/09/03 12:49:12;;;;;;;;;;;;;;;27.67;26.33;100154.13;5052432;28;802;-59
2021/09/03 12:51:40;;;;;;;;;;;;;;;27.37;26.76;100148.13;5052480;28;786;-59
2021/09/03 12:54:07;;;;;;;;;;;;;;;27.31;26.83;100145.25;5051414;28;802;-59
2021/09/03 12:56:36;;;;;;;;;;;;;;;27.62;27.12;100147.16;5052221;28;1886;-59
2021/09/03 12:59:04;;;;;;;;;;;;;;;27.99;26.66;100140.50;5052255;28;817;-59
2021/09/03 13:01:31;;;;;;;;;;;;;;;28.28;26.18;100142.03;5052185;28;837;-59
2021/09/03 13:03:59;;;;;;;;;;;;;;;28.41;25.61;100135.03;5052197;28;819;-59
2021/09/03 13:06:27;;;;;;;;;;;;;;;27.98;26.55;100144.63;5052055;28;846;-59
2021/09/03 13:08:54;;;;;;;;;;;;;;;27.43;26.55;100138.31;5052732;28;755;-59
2021/09/03 13:11:21;;;;;;;;;;;;;;;27.39;27.17;100137.78;5052356;28;857;-59
2021/09/03 13:13:49;;;;;;;;;;;;;;;26.94;27.10;100134.78;5052412;28;798;-59
2021/09/03 13:16:16;;;;;;;;;;;;;;;26.50;27.84;100133.25;5052262;28;1220;-59
2021/09/03 13:18:43;;;;;;;;;;;;;;;25.73;29.65;100132.06;5052089;28;1976;-59
2021/09/03 13:21:09;;;;;;;;;;;;;;;25.79;29.88;100135.72;5052104;28;900;-59